Time;durP1;ratioP1;P1;durP2;ratioP2;P2;SDS_P1;SDS_P2;PMS_P1;PMS_P2;Temp;Humidity;BMP_temperature;BMP_pressure;BME280_temperature;BME280_humidity;BME280_pressure;Samples;Min_cycle;Max_cycle;Signal;HPM_P1;HPM_P2
2022/03/11 00:07:13;;;;;;;13.20;5.53;;;;;;;-0.16;39.10;102232.06;18302604;32;20105;-64
2022/03/11 00:17:18;;;;;;;12.37;5.67;;;;;;;-0.46;39.87;102230.75;18309015;32;20101;-64
2022/03/11 00:27:21;;;;;;;16.83;7.03;;;;;;;-0.66;40.31;102237.03;18307543;32;20409;-64
2022/03/11 00:37:26;;;;;;;16.27;6.67;;;;;;;-0.61;40.91;102231.44;18307086;32;20125;-64
2022/03/11 00:47:29;;;;;;;15.23;7.00;;;;;;;-0.59;40.05;102228.97;18307740;32;20112;-65
2022/03/11 00:57:33;;;;;;;23.77;10.10;;;;;;;-0.84;40.34;102233.19;18306754;32;20104;-64
2022/03/11 01:07:37;;;;;;;20.47;8.93;;;;;;;-1.03;41.33;102238.62;18306550;32;20441;-64
2022/03/11 01:17:42;;;;;;;19.30;7.73;;;;;;;-1.08;42.74;102231.38;18307031;32;20126;-64
2022/03/11 01:27:45;;;;;;;24.43;9.03;;;;;;;-1.57;43.86;102234.53;18306101;32;20450;-64
2022/03/11 01:37:49;;;;;;;16.27;6.63;;;;;;;-1.64;43.43;102228.06;18305713;32;20093;-64
2022/03/11 01:47:53;;;;;;;19.73;8.70;;;;;;;-1.87;44.71;102226.28;18305356;32;20116;-64
2022/03/11 01:57:57;;;;;;;19.37;8.93;;;;;;;-2.03;44.90;102208.84;18305516;32;20423;-64
2022/03/11 02:08:00;;;;;;;13.43;6.40;;;;;;;-2.55;47.04;102217.59;18305259;32;20093;-64
2022/03/11 02:18:05;;;;;;;17.90;7.20;;;;;;;-2.51;46.99;102218.75;18305473;32;20090;-64
2022/03/11 02:28:09;;;;;;;13.33;5.77;;;;;;;-3.23;48.90;102233.41;18303295;32;20406;-64
2022/03/11 02:38:13;;;;;;;12.73;5.60;;;;;;;-3.01;47.78;102225.00;18303895;32;20098;-64
2022/03/11 02:48:18;;;;;;;12.07;5.30;;;;;;;-2.79;47.55;102221.62;18285786;32;564337;-64
2022/03/11 02:58:21;;;;;;;14.87;5.50;;;;;;;-2.75;47.29;102218.56;18302749;32;20086;-64
2022/03/11 03:08:26;;;;;;;12.40;5.87;;;;;;;-2.67;45.92;102211.50;18303314;32;20453;-64
2022/03/11 03:18:30;;;;;;;13.03;5.77;;;;;;;-2.65;46.66;102217.63;18301782;32;20106;-64
2022/03/11 03:28:34;;;;;;;12.30;5.23;;;;;;;-2.57;46.63;102215.69;18301140;32;20370;-64
2022/03/11 03:38:38;;;;;;;14.50;5.97;;;;;;;-2.58;46.08;102204.59;18301006;32;20094;-64
2022/03/11 03:48:42;;;;;;;19.83;7.70;;;;;;;-2.79;46.32;102198.63;18308612;32;20508;-64
2022/03/11 03:58:45;;;;;;;13.67;6.23;;;;;;;-3.06;47.05;102213.47;18308432;32;20438;-64
2022/03/11 04:08:50;;;;;;;14.10;5.90;;;;;;;-2.89;47.48;102214.88;18308057;32;20164;-64
2022/03/11 04:18:53;;;;;;;15.67;6.23;;;;;;;-3.40;47.86;102236.22;18308777;32;20112;-64
2022/03/11 04:28:58;;;;;;;13.83;6.10;;;;;;;-3.25;48.61;102237.50;18307498;32;20093;-64
2022/03/11 04:39:01;;;;;;;17.00;6.00;;;;;;;-3.59;48.58;102239.78;18307332;32;20097;-64
2022/03/11 04:49:06;;;;;;;14.17;5.87;;;;;;;-3.77;50.61;102247.66;18305823;32;20098;-64
2022/03/11 04:59:09;;;;;;;14.03;6.43;;;;;;;-4.03;51.21;102232.66;18304026;32;20097;-64
2022/03/11 05:09:14;;;;;;;13.60;5.60;;;;;;;-3.87;49.54;102246.72;18299672;32;20164;-64
2022/03/11 05:19:17;;;;;;;16.50;6.07;;;;;;;-3.94;51.23;102255.50;18304227;32;20119;-64
2022/03/11 05:29:22;;;;;;;14.60;6.13;;;;;;;-4.16;50.53;102260.37;18316656;32;20098;-64
2022/03/11 05:39:26;;;;;;;13.83;5.57;;;;;;;-4.24;50.64;102268.25;18331738;32;20093;-64
2022/03/11 05:49:30;;;;;;;13.63;5.73;;;;;;;-3.66;50.32;102270.66;18328141;32;20473;-64
2022/03/11 05:59:34;;;;;;;14.07;6.67;;;;;;;-3.09;47.76;102289.91;18327854;32;20121;-64
2022/03/11 06:09:38;;;;;;;16.47;7.50;;;;;;;-0.93;45.02;102283.78;18327092;32;20106;-64
2022/03/11 06:19:42;;;;;;;17.87;7.57;;;;;;;0.90;40.27;102289.81;18304313;32;20366;-65
2022/03/11 06:29:47;;;;;;;15.45;7.68;;;;;;;3.91;35.42;102285.78;18332472;32;20167;-65
2022/03/11 06:39:50;;;;;;;13.40;6.30;;;;;;;7.61;27.29;102269.59;18316153;32;20108;-65
2022/03/11 06:49:55;;;;;;;10.90;5.40;;;;;;;9.52;23.22;102276.47;18303114;32;20151;-65
2022/03/11 06:59:58;;;;;;;18.33;5.70;;;;;;;6.14;26.18;102293.63;18298792;32;20115;-65
2022/03/11 07:10:05;;;;;;;14.93;6.00;;;;;;;4.53;28.03;102305.53;18301033;32;20146;-65
2022/03/11 07:20:09;;;;;;;10.85;5.57;;;;;;;5.73;28.73;102308.06;18304261;32;20374;-65
2022/03/11 07:30:14;;;;;;;10.82;5.22;;;;;;;9.15;23.80;102301.31;18307146;32;20109;-66
2022/03/11 07:40:17;;;;;;;18.17;7.22;;;;;;;8.14;22.37;102295.94;18307250;32;20098;-65
2022/03/11 07:50:22;;;;;;;11.45;5.37;;;;;;;8.88;22.50;102291.69;18307114;32;20128;-65
2022/03/11 08:00:26;;;;;;;15.63;5.70;;;;;;;7.68;22.87;102296.72;18307444;32;20181;-65
2022/03/11 08:10:33;;;;;;;11.45;4.82;;;;;;;5.54;26.34;102309.75;18342294;32;20138;-65
2022/03/11 08:20:56;;;;;;;11.00;4.80;;;;;;;5.94;24.94;102303.91;18371073;32;20512;-65
2022/03/11 08:31:00;;;;;;;9.45;4.40;;;;;;;5.26;26.09;102298.94;18331393;32;20106;-64
2022/03/11 08:41:06;;;;;;;12.77;5.37;;;;;;;4.29;26.92;102294.75;18307934;32;20144;-64
2022/03/11 08:51:11;;;;;;;11.75;4.90;;;;;;;3.87;26.69;102290.78;18306169;32;20370;-65
2022/03/11 09:01:15;;;;;;;15.60;4.70;;;;;;;4.42;25.61;102279.09;18311056;32;20098;-65
2022/03/11 09:11:20;;;;;;;10.50;4.65;;;;;;;5.12;25.59;102267.16;18304124;32;20366;-65
2022/03/11 09:21:25;;;;;;;9.68;3.92;;;;;;;4.72;25.76;102254.75;18304073;32;20082;-66
2022/03/11 09:31:30;;;;;;;9.98;4.60;;;;;;;4.92;24.55;102249.69;18305344;32;20156;-66
2022/03/11 09:41:34;;;;;;;10.10;3.87;;;;;;;8.32;21.63;102235.00;18304065;32;20112;-67
2022/03/11 09:51:40;;;;;;;9.68;4.10;;;;;;;12.69;16.04;102210.38;18303712;32;20097;-66
2022/03/11 10:01:44;;;;;;;9.75;4.47;;;;;;;11.91;16.48;102207.94;18303462;32;20086;-67
2022/03/11 10:11:51;;;;;;;9.43;4.20;;;;;;;11.41;16.86;102208.56;18302825;32;20116;-66
2022/03/11 10:21:57;;;;;;;10.30;4.60;;;;;;;10.16;17.74;102209.69;18303636;32;20738;-67
2022/03/11 10:32:03;;;;;;;13.32;5.03;;;;;;;8.37;19.05;102206.56;18301665;32;20402;-65
2022/03/11 10:42:16;;;;;;;10.52;4.37;;;;;;;11.62;16.67;102197.72;18301095;32;20105;-66
2022/03/11 10:52:31;;;;;;;13.70;4.00;;;;;;;11.64;16.54;102177.69;18347274;32;20089;-66
2022/03/11 11:02:34;;;;;;;12.02;4.20;;;;;;;10.91;15.73;102157.72;18365218;32;20125;-66
2022/03/11 11:12:39;;;;;;;8.40;3.62;;;;;;;12.41;15.52;102151.34;18330661;32;20116;-66
2022/03/11 11:22:45;;;;;;;8.05;3.17;;;;;;;11.67;15.17;102135.94;18299146;32;20219;-66
2022/03/11 11:32:52;;;;;;;9.23;3.30;;;;;;;11.36;14.06;102119.56;18298640;32;20089;-67
2022/03/11 11:43:25;;;;;;;9.93;3.60;;;;;;;8.47;16.61;102122.75;18297558;32;20380;-65
2022/03/11 11:53:34;;;;;;;9.35;3.65;;;;;;;7.13;17.79;102110.09;18297445;32;20089;-65
2022/03/11 12:03:50;;;;;;;6.47;2.92;;;;;;;7.96;17.93;102088.06;18301178;32;20093;-66
2022/03/11 12:14:04;;;;;;;6.97;3.40;;;;;;;7.77;18.32;102086.50;18305384;32;20133;-66
2022/03/11 12:24:31;;;;;;;7.70;3.00;;;;;;;7.98;18.46;102068.19;18307227;32;20177;-66
2022/03/11 12:34:36;;;;;;;7.00;3.00;;;;;;;8.09;17.88;102047.78;18304032;32;20097;-65
2022/03/11 12:44:46;;;;;;;6.62;2.70;;;;;;;7.71;17.38;102035.19;18292714;32;20128;-66
2022/03/11 12:54:51;;;;;;;5.40;2.20;;;;;;;6.95;18.50;102037.56;18327265;32;20094;-66
2022/03/11 13:04:54;;;;;;;6.65;2.58;;;;;;;7.03;17.35;102019.69;18305582;32;20089;-66
2022/03/11 13:15:16;;;;;;;5.57;2.25;;;;;;;7.98;17.07;102013.59;18304452;32;20105;-64
2022/03/11 13:25:24;;;;;;;5.53;2.33;;;;;;;8.07;16.10;102000.03;18301910;32;20085;-64
2022/03/11 13:35:32;;;;;;;7.28;2.08;;;;;;;8.19;15.48;101979.63;18304204;32;20123;-67
2022/03/11 13:45:36;;;;;;;7.22;2.55;;;;;;;8.65;15.44;101974.16;18305292;32;20135;-66
2022/03/11 13:55:41;;;;;;;9.13;2.35;;;;;;;7.82;14.86;101969.66;18301028;32;20089;-66
2022/03/11 14:05:45;;;;;;;8.25;3.05;;;;;;;9.06;14.91;101962.34;18302103;32;20098;-66
2022/03/11 14:15:50;;;;;;;5.05;2.05;;;;;;;9.10;15.13;101953.75;18301599;32;20139;-66
2022/03/11 14:25:54;;;;;;;8.57;2.17;;;;;;;8.42;13.99;101949.97;18300409;32;20385;-67
2022/03/11 14:36:00;;;;;;;3.87;1.85;;;;;;;8.02;14.12;101947.84;18301086;32;20425;-66
2022/03/11 14:46:03;;;;;;;6.03;2.40;;;;;;;8.65;14.64;101929.91;18300254;32;20351;-66
2022/03/11 14:56:11;;;;;;;5.32;2.08;;;;;;;8.18;13.33;101923.22;18328979;32;20090;-66
2022/03/11 15:06:17;;;;;;;6.70;2.30;;;;;;;8.34;14.41;101910.69;18358345;32;20903;-66
2022/03/11 15:16:21;;;;;;;5.95;2.30;;;;;;;8.28;13.98;101915.72;18363188;32;20103;-66
2022/03/11 15:26:25;;;;;;;4.82;2.20;;;;;;;8.41;13.57;101910.03;18363400;32;20094;-66
2022/03/11 15:36:31;;;;;;;4.00;1.67;;;;;;;8.02;13.18;101905.34;18337400;32;20109;-66
2022/03/11 15:46:34;;;;;;;5.93;1.95;;;;;;;7.48;13.16;101901.81;18319976;32;20181;-66
2022/03/11 15:56:39;;;;;;;9.50;3.22;;;;;;;6.71;13.02;101912.91;18305715;32;20097;-66
2022/03/11 16:06:42;;;;;;;11.95;4.62;;;;;;;7.59;13.58;101903.09;18306664;32;20105;-66
2022/03/11 16:16:49;;;;;;;8.40;3.17;;;;;;;7.77;13.72;101902.81;18305124;32;20434;-66
2022/03/11 16:26:55;;;;;;;12.30;4.95;;;;;;;7.49;14.03;101900.97;18304878;32;20110;-66
2022/03/11 16:37:00;;;;;;;17.42;7.45;;;;;;;7.09;14.32;101908.25;18306000;32;20159;-66
2022/03/11 16:47:08;;;;;;;13.32;5.18;;;;;;;6.73;14.68;101917.31;18303198;32;20638;-65
2022/03/11 16:57:12;;;;;;;24.27;6.93;;;;;;;6.22;15.97;101913.62;18304139;32;20110;-66
2022/03/11 17:07:17;;;;;;;45.05;20.65;;;;;;;5.25;17.43;101923.38;18277015;32;20216;-65
2022/03/11 17:17:22;;;;;;;14.75;5.90;;;;;;;4.20;19.66;101924.59;18326522;32;20141;-65
2022/03/11 17:27:25;;;;;;;32.17;6.70;;;;;;;3.63;22.41;101940.72;18348939;32;20098;-66
2022/03/11 17:37:30;;;;;;;21.67;7.30;;;;;;;2.50;23.48;101944.28;18332221;32;20112;-66
2022/03/11 17:47:33;;;;;;;25.35;10.55;;;;;;;2.18;24.62;101961.34;18360564;32;20116;-65
2022/03/11 17:57:38;;;;;;;25.43;10.23;;;;;;;1.89;26.93;101965.72;18313977;32;20133;-65
2022/03/11 18:07:42;;;;;;;28.67;12.87;;;;;;;1.57;26.32;101967.28;18302862;32;20105;-65
2022/03/11 18:17:46;;;;;;;26.62;9.35;;;;;;;1.49;27.64;101977.12;18301379;32;20089;-65
2022/03/11 18:27:50;;;;;;;139.27;54.35;;;;;;;1.35;27.14;101991.72;18300663;32;20094;-65
2022/03/11 18:37:55;;;;;;;46.50;23.07;;;;;;;0.84;26.95;101984.31;18315337;32;20093;-65
2022/03/11 18:47:58;;;;;;;38.43;19.27;;;;;;;0.45;30.03;102001.53;18312205;32;20098;-65
2022/03/11 18:58:03;;;;;;;26.03;11.63;;;;;;;0.35;30.37;102011.19;18326304;32;20100;-65
2022/03/11 19:08:06;;;;;;;24.27;11.73;;;;;;;0.20;30.20;102028.19;18304047;32;20495;-65
2022/03/11 19:18:11;;;;;;;26.90;10.87;;;;;;;0.16;31.09;102039.94;18299706;32;20093;-65
2022/03/11 19:28:15;;;;;;;32.20;12.50;;;;;;;-0.03;32.62;102058.34;18298630;32;20147;-65
2022/03/11 19:38:22;;;;;;;48.77;20.53;;;;;;;-0.14;32.96;102060.19;18300387;32;20102;-65
2022/03/11 19:48:26;;;;;;;129.13;41.90;;;;;;;-0.29;35.00;102075.41;18355551;32;20147;-65
2022/03/11 19:58:34;;;;;;;56.77;24.07;;;;;;;-0.56;36.33;102076.16;18337396;32;20171;-65
2022/03/11 20:08:38;;;;;;;64.00;26.93;;;;;;;-0.72;37.55;102091.25;18335264;32;20105;-65
2022/03/11 20:18:43;;;;;;;49.77;21.43;;;;;;;-1.06;37.85;102099.09;18341895;32;20089;-64
2022/03/11 20:28:47;;;;;;;42.77;17.97;;;;;;;-0.99;38.55;102104.75;18332263;32;20477;-65
2022/03/11 20:38:51;;;;;;;77.33;30.73;;;;;;;-1.48;39.38;102106.28;18324426;32;20097;-65
2022/03/11 20:48:55;;;;;;;156.10;55.43;;;;;;;-1.43;38.79;102126.34;18307903;32;20086;-65
2022/03/11 20:58:59;;;;;;;114.10;43.77;;;;;;;-1.74;41.04;102123.16;18303160;32;20374;-64
2022/03/11 21:09:03;;;;;;;121.43;42.23;;;;;;;-1.75;41.04;102139.28;18302488;32;20112;-64
2022/03/11 21:19:08;;;;;;;89.27;36.70;;;;;;;-2.10;41.00;102146.94;18303765;32;20155;-64
2022/03/11 21:29:11;;;;;;;69.33;33.17;;;;;;;-2.22;42.41;102151.09;18304409;32;20450;-64
2022/03/11 21:39:17;;;;;;;57.67;24.87;;;;;;;-2.49;42.52;102145.59;18302396;32;20093;-65
2022/03/11 21:49:22;;;;;;;52.53;23.03;;;;;;;-2.82;42.54;102144.69;18302545;32;20451;-65
2022/03/11 21:59:27;;;;;;;33.60;15.93;;;;;;;-2.62;42.47;102147.97;18302468;32;20116;-64
2022/03/11 22:09:30;;;;;;;30.83;16.40;;;;;;;-2.97;41.71;102157.12;18302311;32;20813;-64
2022/03/11 22:19:35;;;;;;;38.87;18.67;;;;;;;-3.52;41.49;102173.13;18302747;32;20098;-64
2022/03/11 22:29:38;;;;;;;38.23;17.63;;;;;;;-3.41;43.33;102175.72;18303848;32;20146;-64
2022/03/11 22:39:43;;;;;;;37.30;16.73;;;;;;;-3.53;42.60;102196.00;18303756;32;20098;-61
2022/03/11 22:49:46;;;;;;;42.23;18.77;;;;;;;-3.49;43.54;102198.03;18302580;32;20090;-61
2022/03/11 22:59:51;;;;;;;43.10;19.37;;;;;;;-3.81;45.48;102204.75;18303208;32;20097;-61
2022/03/11 23:09:54;;;;;;;52.57;22.90;;;;;;;-3.96;45.34;102206.00;18303873;32;20093;-64
2022/03/11 23:19:58;;;;;;;54.17;23.97;;;;;;;-3.96;45.53;102203.44;18302424;32;20102;-64
2022/03/11 23:30:01;;;;;;;44.83;22.90;;;;;;;-3.76;46.18;102198.38;18301527;32;20105;-64
2022/03/11 23:40:11;;;;;;;50.03;23.10;;;;;;;-4.04;48.25;102201.12;18300918;32;20426;-64
2022/03/11 23:50:15;;;;;;;50.67;22.63;;;;;;;-4.28;49.00;102201.53;18301986;32;20098;-64
